sensor_id;sensor_type;location;lat;lon;timestamp;pressure;altitude;pressure_sealevel;temperature;humidity
11395;BME280;5753;54.402;10.220;2022-07-04T00:01:18;101725.75;;;25.14;52.00
11395;BME280;5753;54.402;10.220;2022-07-04T00:03:45;101719.53;;;24.54;54.03
11395;BME280;5753;54.402;10.220;2022-07-04T00:06:11;101708.25;;;25.11;52.22
11395;BME280;5753;54.402;10.220;2022-07-04T00:08:37;101709.00;;;24.85;53.08
11395;BME280;5753;54.402;10.220;2022-07-04T00:11:03;101703.44;;;24.94;53.23
11395;BME280;5753;54.402;10.220;2022-07-04T00:13:29;101704.41;;;24.30;54.13
11395;BME280;5753;54.402;10.220;2022-07-04T00:15:55;101701.97;;;23.51;58.24
11395;BME280;5753;54.402;10.220;2022-07-04T00:18:21;101702.56;;;24.94;53.23
11395;BME280;5753;54.402;10.220;2022-07-04T00:20:48;101700.84;;;24.63;53.60
11395;BME280;5753;54.402;10.220;2022-07-04T00:23:14;101697.66;;;25.13;52.86
11395;BME280;5753;54.402;10.220;2022-07-04T00:25:40;101699.97;;;23.62;57.70
11395;BME280;5753;54.402;10.220;2022-07-04T00:28:06;101694.81;;;23.93;55.91
11395;BME280;5753;54.402;10.220;2022-07-04T00:30:32;101692.34;;;24.83;54.56
11395;BME280;5753;54.402;10.220;2022-07-04T00:32:58;101698.78;;;25.04;52.86
11395;BME280;5753;54.402;10.220;2022-07-04T00:35:24;101706.72;;;25.86;49.89
11395;BME280;5753;54.402;10.220;2022-07-04T00:37:51;101708.28;;;25.37;51.59
11395;BME280;5753;54.402;10.220;2022-07-04T00:40:17;101697.25;;;24.35;54.82
11395;BME280;5753;54.402;10.220;2022-07-04T00:42:43;101702.75;;;24.26;54.64
11395;BME280;5753;54.402;10.220;2022-07-04T00:45:09;101702.06;;;25.12;51.86
11395;BME280;5753;54.402;10.220;2022-07-04T00:47:35;101700.50;;;24.44;53.90
11395;BME280;5753;54.402;10.220;2022-07-04T00:50:02;101700.50;;;25.33;50.71
11395;BME280;5753;54.402;10.220;2022-07-04T00:52:28;101695.72;;;25.18;51.41
11395;BME280;5753;54.402;10.220;2022-07-04T00:54:55;101696.84;;;25.10;51.79
11395;BME280;5753;54.402;10.220;2022-07-04T00:57:21;101688.28;;;25.58;50.50
11395;BME280;5753;54.402;10.220;2022-07-04T00:59:47;101689.81;;;24.80;52.98
11395;BME280;5753;54.402;10.220;2022-07-04T01:02:13;101691.69;;;25.34;50.99
11395;BME280;5753;54.402;10.220;2022-07-04T01:04:40;101693.75;;;24.65;52.87
11395;BME280;5753;54.402;10.220;2022-07-04T01:07:06;101695.53;;;25.24;51.50
11395;BME280;5753;54.402;10.220;2022-07-04T01:09:32;101689.78;;;24.18;55.46
11395;BME280;5753;54.402;10.220;2022-07-04T01:11:58;101686.78;;;24.92;52.37
11395;BME280;5753;54.402;10.220;2022-07-04T01:14:24;101686.38;;;25.07;51.99
11395;BME280;5753;54.402;10.220;2022-07-04T01:16:50;101683.41;;;23.59;56.61
11395;BME280;5753;54.402;10.220;2022-07-04T01:19:16;101685.03;;;24.32;55.19
11395;BME280;5753;54.402;10.220;2022-07-04T01:21:43;101692.53;;;25.06;52.25
11395;BME280;5753;54.402;10.220;2022-07-04T01:24:11;101695.00;;;24.20;54.81
11395;BME280;5753;54.402;10.220;2022-07-04T01:26:38;101710.72;;;24.86;52.69
11395;BME280;5753;54.402;10.220;2022-07-04T01:29:04;101700.16;;;24.24;54.93
11395;BME280;5753;54.402;10.220;2022-07-04T01:31:30;101707.00;;;24.31;55.14
11395;BME280;5753;54.402;10.220;2022-07-04T01:33:57;101705.59;;;24.18;55.25
11395;BME280;5753;54.402;10.220;2022-07-04T01:36:23;101709.63;;;24.64;53.81
11395;BME280;5753;54.402;10.220;2022-07-04T01:38:49;101711.66;;;25.15;52.26
11395;BME280;5753;54.402;10.220;2022-07-04T01:41:15;101703.78;;;23.49;57.95
11395;BME280;5753;54.402;10.220;2022-07-04T01:43:41;101711.47;;;23.94;57.83
11395;BME280;5753;54.402;10.220;2022-07-04T01:46:07;101707.06;;;24.61;54.91
11395;BME280;5753;54.402;10.220;2022-07-04T01:48:33;101707.75;;;23.68;58.90
11395;BME280;5753;54.402;10.220;2022-07-04T01:51:00;101714.59;;;23.37;58.86
11395;BME280;5753;54.402;10.220;2022-07-04T01:53:26;101718.06;;;24.10;57.40
11395;BME280;5753;54.402;10.220;2022-07-04T01:55:52;101712.13;;;24.37;55.32
11395;BME280;5753;54.402;10.220;2022-07-04T01:58:18;101707.94;;;23.59;57.82
11395;BME280;5753;54.402;10.220;2022-07-04T02:00:44;101719.09;;;22.93;59.77
11395;BME280;5753;54.402;10.220;2022-07-04T02:03:29;101715.91;;;24.27;55.65
11395;BME280;5753;54.402;10.220;2022-07-04T02:05:55;101717.25;;;24.08;55.37
11395;BME280;5753;54.402;10.220;2022-07-04T02:08:21;101721.63;;;22.96;61.48
11395;BME280;5753;54.402;10.220;2022-07-04T02:10:47;101717.78;;;23.12;61.81
11395;BME280;5753;54.402;10.220;2022-07-04T02:13:13;101718.84;;;22.14;66.72
11395;BME280;5753;54.402;10.220;2022-07-04T02:15:42;101712.44;;;23.15;61.53
11395;BME280;5753;54.402;10.220;2022-07-04T02:18:10;101713.66;;;23.39;61.28
11395;BME280;5753;54.402;10.220;2022-07-04T02:20:37;101722.38;;;22.58;63.91
11395;BME280;5753;54.402;10.220;2022-07-04T02:23:04;101707.47;;;23.03;63.47
11395;BME280;5753;54.402;10.220;2022-07-04T02:25:31;101707.91;;;23.23;60.24
11395;BME280;5753;54.402;10.220;2022-07-04T02:27:57;101718.59;;;23.14;62.15
11395;BME280;5753;54.402;10.220;2022-07-04T02:30:24;101725.72;;;22.20;65.97
11395;BME280;5753;54.402;10.220;2022-07-04T02:32:51;101721.13;;;22.77;62.82
11395;BME280;5753;54.402;10.220;2022-07-04T02:35:17;101723.56;;;22.43;64.82
11395;BME280;5753;54.402;10.220;2022-07-04T02:37:44;101721.22;;;23.14;61.50
11395;BME280;5753;54.402;10.220;2022-07-04T02:40:10;101719.19;;;23.67;58.40
11395;BME280;5753;54.402;10.220;2022-07-04T02:42:37;101727.41;;;24.56;55.19
11395;BME280;5753;54.402;10.220;2022-07-04T02:45:04;101720.09;;;24.67;52.83
11395;BME280;5753;54.402;10.220;2022-07-04T02:47:30;101724.69;;;23.16;58.88
11395;BME280;5753;54.402;10.220;2022-07-04T02:49:56;101723.56;;;22.88;61.52
11395;BME280;5753;54.402;10.220;2022-07-04T02:52:22;101726.13;;;24.04;56.55
11395;BME280;5753;54.402;10.220;2022-07-04T02:54:49;101733.19;;;22.43;63.14
11395;BME280;5753;54.402;10.220;2022-07-04T02:57:15;101743.66;;;22.46;64.11
11395;BME280;5753;54.402;10.220;2022-07-04T02:59:41;101727.41;;;22.69;61.99
11395;BME280;5753;54.402;10.220;2022-07-04T03:02:08;101730.44;;;23.74;58.30
11395;BME280;5753;54.402;10.220;2022-07-04T03:04:34;101741.50;;;22.18;64.52
11395;BME280;5753;54.402;10.220;2022-07-04T03:07:00;101734.38;;;23.53;59.36
11395;BME280;5753;54.402;10.220;2022-07-04T03:09:27;101732.63;;;23.53;58.27
11395;BME280;5753;54.402;10.220;2022-07-04T03:11:53;101747.25;;;22.40;62.35
11395;BME280;5753;54.402;10.220;2022-07-04T03:14:20;101743.78;;;23.66;56.60
11395;BME280;5753;54.402;10.220;2022-07-04T03:16:46;101738.13;;;24.49;53.97
11395;BME280;5753;54.402;10.220;2022-07-04T03:19:12;101740.34;;;23.98;55.40
11395;BME280;5753;54.402;10.220;2022-07-04T03:21:38;101740.72;;;23.44;56.41
11395;BME280;5753;54.402;10.220;2022-07-04T03:24:05;101744.16;;;23.48;59.04
11395;BME280;5753;54.402;10.220;2022-07-04T03:26:32;101748.13;;;24.37;54.75
11395;BME280;5753;54.402;10.220;2022-07-04T03:29:00;101749.63;;;24.78;52.48
11395;BME280;5753;54.402;10.220;2022-07-04T03:31:27;101744.16;;;23.48;55.61
11395;BME280;5753;54.402;10.220;2022-07-04T03:33:54;101754.34;;;23.24;58.52
11395;BME280;5753;54.402;10.220;2022-07-04T03:36:20;101749.84;;;23.30;57.68
11395;BME280;5753;54.402;10.220;2022-07-04T03:38:47;101750.13;;;23.56;57.75
11395;BME280;5753;54.402;10.220;2022-07-04T03:41:14;101755.75;;;23.39;57.17
11395;BME280;5753;54.402;10.220;2022-07-04T03:43:40;101757.22;;;23.12;58.18
11395;BME280;5753;54.402;10.220;2022-07-04T03:46:06;101758.91;;;22.27;60.78
11395;BME280;5753;54.402;10.220;2022-07-04T03:48:33;101751.72;;;23.24;58.24
11395;BME280;5753;54.402;10.220;2022-07-04T03:50:59;101753.13;;;22.05;65.21
11395;BME280;5753;54.402;10.220;2022-07-04T03:53:25;101761.91;;;23.40;57.19
11395;BME280;5753;54.402;10.220;2022-07-04T03:55:51;101760.72;;;22.68;61.88
11395;BME280;5753;54.402;10.220;2022-07-04T03:58:18;101763.03;;;22.86;59.29
11395;BME280;5753;54.402;10.220;2022-07-04T04:00:44;101770.53;;;21.54;65.06
11395;BME280;5753;54.402;10.220;2022-07-04T04:03:10;101761.75;;;23.46;56.27
11395;BME280;5753;54.402;10.220;2022-07-04T04:05:55;101755.72;;;23.41;58.95
11395;BME280;5753;54.402;10.220;2022-07-04T04:08:22;101767.50;;;22.35;62.17
11395;BME280;5753;54.402;10.220;2022-07-04T04:10:49;101756.44;;;24.22;55.67
11395;BME280;5753;54.402;10.220;2022-07-04T04:13:15;101751.69;;;23.65;57.37
11395;BME280;5753;54.402;10.220;2022-07-04T04:15:41;101754.59;;;24.58;54.44
11395;BME280;5753;54.402;10.220;2022-07-04T04:18:08;101754.59;;;23.90;53.99
11395;BME280;5753;54.402;10.220;2022-07-04T04:20:34;101757.34;;;25.17;51.69
11395;BME280;5753;54.402;10.220;2022-07-04T04:23:00;101762.41;;;25.23;50.67
11395;BME280;5753;54.402;10.220;2022-07-04T04:25:27;101757.06;;;24.95;52.00
11395;BME280;5753;54.402;10.220;2022-07-04T04:27:53;101769.06;;;24.43;52.73
11395;BME280;5753;54.402;10.220;2022-07-04T04:30:19;101767.19;;;24.79;52.43
11395;BME280;5753;54.402;10.220;2022-07-04T04:32:45;101770.75;;;25.93;49.67
11395;BME280;5753;54.402;10.220;2022-07-04T04:35:11;101769.34;;;24.65;51.76
11395;BME280;5753;54.402;10.220;2022-07-04T04:37:37;101775.81;;;24.19;53.04
11395;BME280;5753;54.402;10.220;2022-07-04T04:40:04;101779.56;;;25.65;49.79
11395;BME280;5753;54.402;10.220;2022-07-04T04:42:30;101772.78;;;25.29;49.94
11395;BME280;5753;54.402;10.220;2022-07-04T04:44:56;101781.19;;;22.99;55.51
11395;BME280;5753;54.402;10.220;2022-07-04T04:47:23;101781.63;;;25.28;50.37
11395;BME280;5753;54.402;10.220;2022-07-04T04:49:49;101780.94;;;24.58;51.93
11395;BME280;5753;54.402;10.220;2022-07-04T04:52:15;101788.28;;;25.12;50.10
11395;BME280;5753;54.402;10.220;2022-07-04T04:54:41;101786.47;;;24.81;50.02
11395;BME280;5753;54.402;10.220;2022-07-04T04:57:08;101781.91;;;24.21;52.62
11395;BME280;5753;54.402;10.220;2022-07-04T04:59:34;101786.53;;;25.10;50.67
11395;BME280;5753;54.402;10.220;2022-07-04T05:02:00;101783.09;;;24.76;50.78
11395;BME280;5753;54.402;10.220;2022-07-04T05:04:27;101778.19;;;25.82;47.79
11395;BME280;5753;54.402;10.220;2022-07-04T05:06:53;101779.72;;;25.89;48.72
11395;BME280;5753;54.402;10.220;2022-07-04T05:09:20;101781.69;;;26.35;47.55
11395;BME280;5753;54.402;10.220;2022-07-04T05:11:47;101785.25;;;25.24;50.89
11395;BME280;5753;54.402;10.220;2022-07-04T05:14:13;101788.44;;;25.91;49.08
11395;BME280;5753;54.402;10.220;2022-07-04T05:16:39;101783.22;;;26.16;48.01
11395;BME280;5753;54.402;10.220;2022-07-04T05:19:06;101788.50;;;26.90;47.02
11395;BME280;5753;54.402;10.220;2022-07-04T05:21:32;101796.56;;;26.87;46.52
11395;BME280;5753;54.402;10.220;2022-07-04T05:23:58;101802.25;;;26.77;46.17
11395;BME280;5753;54.402;10.220;2022-07-04T05:26:24;101799.72;;;25.10;49.91
11395;BME280;5753;54.402;10.220;2022-07-04T05:28:51;101808.66;;;25.92;48.87
11395;BME280;5753;54.402;10.220;2022-07-04T05:31:17;101807.75;;;24.75;50.51
11395;BME280;5753;54.402;10.220;2022-07-04T05:33:43;101817.28;;;25.70;47.33
11395;BME280;5753;54.402;10.220;2022-07-04T05:36:09;101814.59;;;24.48;50.65
11395;BME280;5753;54.402;10.220;2022-07-04T05:38:35;101808.72;;;25.62;48.85
11395;BME280;5753;54.402;10.220;2022-07-04T05:41:02;101812.75;;;26.02;48.05
11395;BME280;5753;54.402;10.220;2022-07-04T05:43:28;101811.66;;;25.24;49.49
11395;BME280;5753;54.402;10.220;2022-07-04T05:45:54;101809.47;;;26.96;45.90
11395;BME280;5753;54.402;10.220;2022-07-04T05:48:21;101816.22;;;26.57;45.73
11395;BME280;5753;54.402;10.220;2022-07-04T05:50:47;101810.94;;;25.76;48.04
11395;BME280;5753;54.402;10.220;2022-07-04T05:53:13;101803.34;;;25.93;48.90
11395;BME280;5753;54.402;10.220;2022-07-04T05:55:39;101810.69;;;26.63;46.74
11395;BME280;5753;54.402;10.220;2022-07-04T05:58:05;101810.50;;;25.90;47.74
11395;BME280;5753;54.402;10.220;2022-07-04T06:00:31;101810.75;;;25.25;48.94
11395;BME280;5753;54.402;10.220;2022-07-04T06:02:58;101805.09;;;25.93;47.76
11395;BME280;5753;54.402;10.220;2022-07-04T06:05:24;101805.22;;;26.43;46.42
11395;BME280;5753;54.402;10.220;2022-07-04T06:07:50;101814.28;;;26.09;46.71
11395;BME280;5753;54.402;10.220;2022-07-04T06:10:16;101826.31;;;26.18;47.19
11395;BME280;5753;54.402;10.220;2022-07-04T06:12:43;101815.16;;;25.52;49.49
11395;BME280;5753;54.402;10.220;2022-07-04T06:15:09;101817.91;;;26.83;44.93
11395;BME280;5753;54.402;10.220;2022-07-04T06:17:36;101825.91;;;27.06;45.41
11395;BME280;5753;54.402;10.220;2022-07-04T06:20:03;101822.22;;;27.34;45.85
11395;BME280;5753;54.402;10.220;2022-07-04T06:22:39;101827.97;;;26.73;46.33
11395;BME280;5753;54.402;10.220;2022-07-04T06:25:06;101824.75;;;26.12;46.34
11395;BME280;5753;54.402;10.220;2022-07-04T06:27:32;101823.41;;;25.99;47.70
11395;BME280;5753;54.402;10.220;2022-07-04T06:29:58;101818.06;;;27.50;43.79
11395;BME280;5753;54.402;10.220;2022-07-04T06:32:26;101820.59;;;28.18;42.71
11395;BME280;5753;54.402;10.220;2022-07-04T06:34:52;101815.31;;;27.06;43.74
11395;BME280;5753;54.402;10.220;2022-07-04T06:37:37;101800.59;;;27.22;43.90
11395;BME280;5753;54.402;10.220;2022-07-04T06:40:03;101812.28;;;27.84;43.11
11395;BME280;5753;54.402;10.220;2022-07-04T06:42:29;101814.69;;;27.90;43.61
11395;BME280;5753;54.402;10.220;2022-07-04T06:44:56;101818.34;;;27.42;44.19
11395;BME280;5753;54.402;10.220;2022-07-04T06:47:22;101812.50;;;27.11;43.48
11395;BME280;5753;54.402;10.220;2022-07-04T06:49:48;101814.22;;;27.12;43.44
11395;BME280;5753;54.402;10.220;2022-07-04T06:52:14;101816.63;;;27.65;43.49
11395;BME280;5753;54.402;10.220;2022-07-04T06:54:40;101812.69;;;27.97;42.49
11395;BME280;5753;54.402;10.220;2022-07-04T06:57:06;101825.81;;;28.00;42.09
11395;BME280;5753;54.402;10.220;2022-07-04T06:59:32;101822.25;;;26.08;44.93
11395;BME280;5753;54.402;10.220;2022-07-04T07:01:58;101824.03;;;25.22;46.06
11395;BME280;5753;54.402;10.220;2022-07-04T07:04:24;101812.03;;;27.46;42.44
11395;BME280;5753;54.402;10.220;2022-07-04T07:06:50;101813.06;;;28.70;41.82
11395;BME280;5753;54.402;10.220;2022-07-04T07:09:17;101818.88;;;26.80;42.91
11395;BME280;5753;54.402;10.220;2022-07-04T07:11:43;101799.78;;;27.44;41.38
11395;BME280;5753;54.402;10.220;2022-07-04T07:14:09;101809.34;;;28.74;40.17
11395;BME280;5753;54.402;10.220;2022-07-04T07:16:35;101808.28;;;28.78;39.76
11395;BME280;5753;54.402;10.220;2022-07-04T07:19:01;101800.34;;;29.55;38.83
11395;BME280;5753;54.402;10.220;2022-07-04T07:21:27;101800.81;;;29.07;39.72
11395;BME280;5753;54.402;10.220;2022-07-04T07:23:53;101805.00;;;29.12;39.03
11395;BME280;5753;54.402;10.220;2022-07-04T07:26:20;101807.72;;;28.92;39.13
11395;BME280;5753;54.402;10.220;2022-07-04T07:28:46;101815.03;;;28.46;39.06
11395;BME280;5753;54.402;10.220;2022-07-04T07:31:12;101803.09;;;28.14;40.05
11395;BME280;5753;54.402;10.220;2022-07-04T07:33:38;101811.13;;;29.52;38.53
11395;BME280;5753;54.402;10.220;2022-07-04T07:36:05;101817.91;;;29.20;37.47
11395;BME280;5753;54.402;10.220;2022-07-04T07:38:31;101817.75;;;29.80;36.89
11395;BME280;5753;54.402;10.220;2022-07-04T07:40:57;101806.06;;;28.07;40.02
11395;BME280;5753;54.402;10.220;2022-07-04T07:43:23;101804.69;;;29.00;38.36
11395;BME280;5753;54.402;10.220;2022-07-04T07:45:50;101809.16;;;28.59;37.49
11395;BME280;5753;54.402;10.220;2022-07-04T07:48:16;101806.88;;;25.92;43.00
11395;BME280;5753;54.402;10.220;2022-07-04T07:50:42;101808.47;;;29.33;38.72
11395;BME280;5753;54.402;10.220;2022-07-04T07:53:08;101810.63;;;28.66;39.08
11395;BME280;5753;54.402;10.220;2022-07-04T07:55:35;101810.31;;;28.53;38.83
11395;BME280;5753;54.402;10.220;2022-07-04T07:58:01;101816.47;;;28.53;39.04
11395;BME280;5753;54.402;10.220;2022-07-04T08:00:27;101812.94;;;28.33;39.77
11395;BME280;5753;54.402;10.220;2022-07-04T08:02:53;101817.28;;;29.53;37.62
11395;BME280;5753;54.402;10.220;2022-07-04T08:05:39;101815.28;;;30.97;34.85
11395;BME280;5753;54.402;10.220;2022-07-04T08:08:05;101815.88;;;30.52;35.50
11395;BME280;5753;54.402;10.220;2022-07-04T08:10:33;101812.03;;;27.23;38.28
11395;BME280;5753;54.402;10.220;2022-07-04T08:12:59;101810.69;;;28.02;37.95
11395;BME280;5753;54.402;10.220;2022-07-04T08:15:25;101817.06;;;29.57;36.87
11395;BME280;5753;54.402;10.220;2022-07-04T08:17:51;101820.41;;;29.43;36.37
11395;BME280;5753;54.402;10.220;2022-07-04T08:20:19;101822.94;;;30.36;35.40
11395;BME280;5753;54.402;10.220;2022-07-04T08:22:45;101823.31;;;30.63;34.37
11395;BME280;5753;54.402;10.220;2022-07-04T08:25:11;101816.84;;;29.98;35.69
11395;BME280;5753;54.402;10.220;2022-07-04T08:27:37;101807.69;;;28.31;37.45
11395;BME280;5753;54.402;10.220;2022-07-04T08:30:04;101811.22;;;28.72;38.68
11395;BME280;5753;54.402;10.220;2022-07-04T08:32:31;101813.47;;;29.39;36.37
11395;BME280;5753;54.402;10.220;2022-07-04T08:34:58;101814.50;;;29.56;35.44
11395;BME280;5753;54.402;10.220;2022-07-04T08:37:24;101809.09;;;29.01;37.11
11395;BME280;5753;54.402;10.220;2022-07-04T08:39:50;101808.00;;;29.42;36.39
11395;BME280;5753;54.402;10.220;2022-07-04T08:42:19;101817.53;;;28.07;36.73
11395;BME280;5753;54.402;10.220;2022-07-04T08:44:48;101807.88;;;29.64;36.22
11395;BME280;5753;54.402;10.220;2022-07-04T08:47:25;101815.19;;;31.15;33.92
11395;BME280;5753;54.402;10.220;2022-07-04T08:50:11;101811.22;;;31.55;33.28
11395;BME280;5753;54.402;10.220;2022-07-04T08:52:39;101811.41;;;30.70;33.15
11395;BME280;5753;54.402;10.220;2022-07-04T08:55:08;101802.56;;;30.52;34.33
11395;BME280;5753;54.402;10.220;2022-07-04T08:57:54;101809.41;;;30.91;33.82
11395;BME280;5753;54.402;10.220;2022-07-04T09:00:39;101812.75;;;30.61;33.86
11395;BME280;5753;54.402;10.220;2022-07-04T09:03:06;101804.13;;;30.56;33.82
11395;BME280;5753;54.402;10.220;2022-07-04T09:05:33;101803.25;;;31.06;32.82
11395;BME280;5753;54.402;10.220;2022-07-04T09:08:00;101806.13;;;31.66;32.28
11395;BME280;5753;54.402;10.220;2022-07-04T09:10:27;101804.13;;;29.12;34.42
11395;BME280;5753;54.402;10.220;2022-07-04T09:12:53;101811.72;;;29.76;33.80
11395;BME280;5753;54.402;10.220;2022-07-04T09:15:20;101810.09;;;30.44;33.58
11395;BME280;5753;54.402;10.220;2022-07-04T09:17:46;101807.84;;;29.08;35.28
11395;BME280;5753;54.402;10.220;2022-07-04T09:20:18;101800.66;;;31.38;31.69
11395;BME280;5753;54.402;10.220;2022-07-04T09:22:45;101806.22;;;31.49;31.34
11395;BME280;5753;54.402;10.220;2022-07-04T09:25:13;101797.41;;;28.84;34.49
11395;BME280;5753;54.402;10.220;2022-07-04T09:27:42;101804.50;;;31.63;31.30
11395;BME280;5753;54.402;10.220;2022-07-04T09:30:14;101802.63;;;32.41;31.47
11395;BME280;5753;54.402;10.220;2022-07-04T09:33:07;101803.16;;;29.33;33.80
11395;BME280;5753;54.402;10.220;2022-07-04T09:35:33;101808.97;;;31.63;31.55
11395;BME280;5753;54.402;10.220;2022-07-04T09:38:03;101823.69;;;30.21;31.63
11395;BME280;5753;54.402;10.220;2022-07-04T09:40:36;101809.34;;;27.70;35.10
11395;BME280;5753;54.402;10.220;2022-07-04T09:43:23;101816.03;;;30.15;33.07
11395;BME280;5753;54.402;10.220;2022-07-04T09:46:00;101806.06;;;29.84;33.52
11395;BME280;5753;54.402;10.220;2022-07-04T09:48:47;101809.66;;;30.00;33.68
11395;BME280;5753;54.402;10.220;2022-07-04T09:51:13;101813.53;;;30.63;33.13
11395;BME280;5753;54.402;10.220;2022-07-04T09:53:40;101808.53;;;30.75;32.63
11395;BME280;5753;54.402;10.220;2022-07-04T09:56:06;101809.22;;;30.26;33.11
11395;BME280;5753;54.402;10.220;2022-07-04T09:58:32;101811.66;;;31.14;32.52
11395;BME280;5753;54.402;10.220;2022-07-04T10:01:00;101814.88;;;30.37;33.69
11395;BME280;5753;54.402;10.220;2022-07-04T10:03:28;101803.72;;;32.23;31.70
11395;BME280;5753;54.402;10.220;2022-07-04T10:08:31;101804.13;;;30.56;33.21
11395;BME280;5753;54.402;10.220;2022-07-04T10:11:02;101808.72;;;29.65;33.65
11395;BME280;5753;54.402;10.220;2022-07-04T10:13:29;101797.66;;;31.11;32.00
11395;BME280;5753;54.402;10.220;2022-07-04T10:15:55;101799.19;;;31.79;30.87
11395;BME280;5753;54.402;10.220;2022-07-04T10:18:23;101809.00;;;30.65;32.20
11395;BME280;5753;54.402;10.220;2022-07-04T10:20:51;101806.06;;;31.52;29.34
11395;BME280;5753;54.402;10.220;2022-07-04T10:23:22;101805.00;;;32.90;28.73
11395;BME280;5753;54.402;10.220;2022-07-04T10:25:50;101803.09;;;32.78;28.86
11395;BME280;5753;54.402;10.220;2022-07-04T10:28:18;101801.19;;;32.06;30.18
11395;BME280;5753;54.402;10.220;2022-07-04T10:30:48;101784.41;;;31.26;31.71
11395;BME280;5753;54.402;10.220;2022-07-04T10:33:16;101798.66;;;31.57;31.49
11395;BME280;5753;54.402;10.220;2022-07-04T10:40:57;101788.44;;;32.11;28.14
11395;BME280;5753;54.402;10.220;2022-07-04T10:48:51;101796.03;;;31.08;29.93
11395;BME280;5753;54.402;10.220;2022-07-04T10:57:11;101813.81;;;29.13;33.70
11395;BME280;5753;54.402;10.220;2022-07-04T10:59:42;101793.38;;;29.53;34.02
11395;BME280;5753;54.402;10.220;2022-07-04T11:07:16;101794.13;;;30.10;32.48
11395;BME280;5753;54.402;10.220;2022-07-04T11:09:44;101797.38;;;29.42;33.64
11395;BME280;5753;54.402;10.220;2022-07-04T11:12:11;101801.00;;;30.98;32.14
11395;BME280;5753;54.402;10.220;2022-07-04T11:14:44;101805.06;;;30.21;33.04
11395;BME280;5753;54.402;10.220;2022-07-04T11:17:20;101807.59;;;29.33;34.25
11395;BME280;5753;54.402;10.220;2022-07-04T11:19:47;101810.22;;;27.70;37.75
11395;BME280;5753;54.402;10.220;2022-07-04T11:22:23;101802.47;;;28.30;37.02
11395;BME280;5753;54.402;10.220;2022-07-04T11:24:49;101815.75;;;29.28;34.84
11395;BME280;5753;54.402;10.220;2022-07-04T11:27:15;101798.97;;;28.07;36.83
11395;BME280;5753;54.402;10.220;2022-07-04T11:29:52;101795.06;;;30.26;33.85
11395;BME280;5753;54.402;10.220;2022-07-04T11:32:19;101793.66;;;30.19;34.07
11395;BME280;5753;54.402;10.220;2022-07-04T11:34:46;101795.31;;;30.38;33.49
11395;BME280;5753;54.402;10.220;2022-07-04T11:37:13;101788.88;;;30.93;33.09
11395;BME280;5753;54.402;10.220;2022-07-04T11:39:39;101775.88;;;33.14;30.03
11395;BME280;5753;54.402;10.220;2022-07-04T11:42:06;101780.31;;;33.42;29.42
11395;BME280;5753;54.402;10.220;2022-07-04T11:44:50;101778.13;;;34.15;29.13
11395;BME280;5753;54.402;10.220;2022-07-04T11:50:01;101784.91;;;33.94;27.30
11395;BME280;5753;54.402;10.220;2022-07-04T11:52:30;101769.06;;;31.14;29.66
11395;BME280;5753;54.402;10.220;2022-07-04T11:54:57;101768.81;;;33.54;27.69
11395;BME280;5753;54.402;10.220;2022-07-04T11:57:26;101776.34;;;33.62;27.75
11395;BME280;5753;54.402;10.220;2022-07-04T11:59:58;101775.31;;;31.30;30.06
11395;BME280;5753;54.402;10.220;2022-07-04T12:02:26;101768.50;;;31.25;30.91
11395;BME280;5753;54.402;10.220;2022-07-04T12:04:53;101776.03;;;29.99;32.20
11395;BME280;5753;54.402;10.220;2022-07-04T12:07:22;101770.50;;;28.33;34.51
11395;BME280;5753;54.402;10.220;2022-07-04T12:09:49;101769.09;;;28.04;35.28
11395;BME280;5753;54.402;10.220;2022-07-04T12:12:16;101766.06;;;30.72;31.41
11395;BME280;5753;54.402;10.220;2022-07-04T12:15:06;101763.09;;;30.27;32.33
11395;BME280;5753;54.402;10.220;2022-07-04T12:17:34;101765.59;;;30.30;32.25
11395;BME280;5753;54.402;10.220;2022-07-04T12:20:15;101762.19;;;30.44;32.89
11395;BME280;5753;54.402;10.220;2022-07-04T12:22:55;101766.13;;;30.37;32.46
11395;BME280;5753;54.402;10.220;2022-07-04T12:25:25;101761.94;;;29.43;33.28
11395;BME280;5753;54.402;10.220;2022-07-04T12:28:02;101756.19;;;30.06;33.09
11395;BME280;5753;54.402;10.220;2022-07-04T12:30:31;101762.84;;;30.15;32.83
11395;BME280;5753;54.402;10.220;2022-07-04T12:33:06;101765.97;;;31.06;31.64
11395;BME280;5753;54.402;10.220;2022-07-04T12:35:37;101752.06;;;31.48;31.21
11395;BME280;5753;54.402;10.220;2022-07-04T12:38:06;101747.56;;;32.83;28.81
11395;BME280;5753;54.402;10.220;2022-07-04T12:40:33;101757.91;;;34.36;26.31
11395;BME280;5753;54.402;10.220;2022-07-04T12:43:00;101747.47;;;35.32;25.55
11395;BME280;5753;54.402;10.220;2022-07-04T12:45:40;101753.34;;;33.04;25.87
11395;BME280;5753;54.402;10.220;2022-07-04T12:48:15;101752.09;;;33.09;26.11
11395;BME280;5753;54.402;10.220;2022-07-04T12:50:41;101743.63;;;31.09;27.35
11395;BME280;5753;54.402;10.220;2022-07-04T12:53:07;101739.56;;;32.69;27.43
11395;BME280;5753;54.402;10.220;2022-07-04T12:55:34;101742.59;;;31.11;28.34
11395;BME280;5753;54.402;10.220;2022-07-04T12:58:02;101728.81;;;31.66;28.55
11395;BME280;5753;54.402;10.220;2022-07-04T13:00:28;101742.91;;;31.68;28.91
11395;BME280;5753;54.402;10.220;2022-07-04T13:02:54;101729.88;;;33.50;27.69
11395;BME280;5753;54.402;10.220;2022-07-04T13:05:21;101726.19;;;34.30;25.49
11395;BME280;5753;54.402;10.220;2022-07-04T13:07:47;101728.22;;;34.27;26.05
11395;BME280;5753;54.402;10.220;2022-07-04T13:10:13;101722.19;;;38.14;21.86
11395;BME280;5753;54.402;10.220;2022-07-04T13:12:39;101722.00;;;37.85;21.74
11395;BME280;5753;54.402;10.220;2022-07-04T13:15:06;101732.06;;;34.86;25.67
11395;BME280;5753;54.402;10.220;2022-07-04T13:17:32;101731.53;;;32.54;28.16
11395;BME280;5753;54.402;10.220;2022-07-04T13:19:59;101724.50;;;32.82;28.77